sensor_id;sensor_type;location;lat;lon;timestamp;temperature;humidity
15357;DHT22;7778;48.792;9.260;2024-03-06T00:01:18;7.30;99.90
15357;DHT22;7778;48.792;9.260;2024-03-06T00:04:04;7.40;99.90
15357;DHT22;7778;48.792;9.260;2024-03-06T00:06:51;7.30;99.90
15357;DHT22;7778;48.792;9.260;2024-03-06T00:09:38;7.30;99.90
15357;DHT22;7778;48.792;9.260;2024-03-06T00:12:23;7.40;99.90
15357;DHT22;7778;48.792;9.260;2024-03-06T00:15:09;7.40;99.90
15357;DHT22;7778;48.792;9.260;2024-03-06T00:17:55;7.30;99.90
15357;DHT22;7778;48.792;9.260;2024-03-06T00:20:41;7.40;99.90
15357;DHT22;7778;48.792;9.260;2024-03-06T00:23:29;7.40;99.90
15357;DHT22;7778;48.792;9.260;2024-03-06T00:26:15;7.40;99.90
15357;DHT22;7778;48.792;9.260;2024-03-06T00:29:03;7.10;99.90
15357;DHT22;7778;48.792;9.260;2024-03-06T00:31:49;7.10;99.90
15357;DHT22;7778;48.792;9.260;2024-03-06T00:34:35;7.10;99.90
15357;DHT22;7778;48.792;9.260;2024-03-06T00:37:20;7.20;99.90
15357;DHT22;7778;48.792;9.260;2024-03-06T00:40:09;7.20;99.90
15357;DHT22;7778;48.792;9.260;2024-03-06T00:42:55;7.30;99.90
15357;DHT22;7778;48.792;9.260;2024-03-06T00:45:41;7.30;99.90
15357;DHT22;7778;48.792;9.260;2024-03-06T00:48:26;7.40;99.90
15357;DHT22;7778;48.792;9.260;2024-03-06T00:51:12;7.40;99.90
15357;DHT22;7778;48.792;9.260;2024-03-06T00:53:57;7.60;99.90
15357;DHT22;7778;48.792;9.260;2024-03-06T00:56:44;7.40;99.90
15357;DHT22;7778;48.792;9.260;2024-03-06T00:59:30;7.40;99.90
15357;DHT22;7778;48.792;9.260;2024-03-06T01:02:15;7.40;99.90
15357;DHT22;7778;48.792;9.260;2024-03-06T01:05:01;7.30;99.90
15357;DHT22;7778;48.792;9.260;2024-03-06T01:07:48;7.40;99.90
15357;DHT22;7778;48.792;9.260;2024-03-06T01:10:34;7.30;99.90
15357;DHT22;7778;48.792;9.260;2024-03-06T01:13:21;7.30;99.90
15357;DHT22;7778;48.792;9.260;2024-03-06T01:16:07;7.40;99.90
15357;DHT22;7778;48.792;9.260;2024-03-06T01:18:53;7.40;99.90
15357;DHT22;7778;48.792;9.260;2024-03-06T01:21:38;7.40;99.90
15357;DHT22;7778;48.792;9.260;2024-03-06T01:24:24;7.40;99.90
15357;DHT22;7778;48.792;9.260;2024-03-06T01:27:10;7.30;99.90
15357;DHT22;7778;48.792;9.260;2024-03-06T01:29:57;7.30;99.90
15357;DHT22;7778;48.792;9.260;2024-03-06T01:32:43;7.30;99.90
15357;DHT22;7778;48.792;9.260;2024-03-06T01:35:28;7.30;99.90
15357;DHT22;7778;48.792;9.260;2024-03-06T01:38:14;7.30;99.90
15357;DHT22;7778;48.792;9.260;2024-03-06T01:41:00;7.30;99.90
15357;DHT22;7778;48.792;9.260;2024-03-06T01:43:45;7.20;99.90
15357;DHT22;7778;48.792;9.260;2024-03-06T01:46:32;7.30;99.90
15357;DHT22;7778;48.792;9.260;2024-03-06T01:49:18;7.10;99.90
15357;DHT22;7778;48.792;9.260;2024-03-06T01:52:04;7.10;99.90
15357;DHT22;7778;48.792;9.260;2024-03-06T01:54:50;7.10;99.90
15357;DHT22;7778;48.792;9.260;2024-03-06T01:57:38;7.10;99.90
15357;DHT22;7778;48.792;9.260;2024-03-06T02:00:25;7.00;99.90
15357;DHT22;7778;48.792;9.260;2024-03-06T02:03:12;7.00;99.90
15357;DHT22;7778;48.792;9.260;2024-03-06T02:06:00;6.80;99.90
15357;DHT22;7778;48.792;9.260;2024-03-06T02:08:48;6.70;99.90
15357;DHT22;7778;48.792;9.260;2024-03-06T02:11:33;6.70;99.90
15357;DHT22;7778;48.792;9.260;2024-03-06T02:14:19;6.70;99.90
15357;DHT22;7778;48.792;9.260;2024-03-06T02:17:04;6.60;99.90
15357;DHT22;7778;48.792;9.260;2024-03-06T02:19:52;6.50;99.90
15357;DHT22;7778;48.792;9.260;2024-03-06T02:22:39;6.50;99.90
15357;DHT22;7778;48.792;9.260;2024-03-06T02:25:25;6.70;99.90
15357;DHT22;7778;48.792;9.260;2024-03-06T02:28:11;6.70;99.90
15357;DHT22;7778;48.792;9.260;2024-03-06T02:30:57;6.70;99.90
15357;DHT22;7778;48.792;9.260;2024-03-06T02:33:43;6.80;99.90
15357;DHT22;7778;48.792;9.260;2024-03-06T02:36:29;6.80;99.90
15357;DHT22;7778;48.792;9.260;2024-03-06T02:39:18;6.90;99.90
15357;DHT22;7778;48.792;9.260;2024-03-06T02:42:03;6.90;99.90
15357;DHT22;7778;48.792;9.260;2024-03-06T02:44:49;6.90;99.90
15357;DHT22;7778;48.792;9.260;2024-03-06T02:47:35;7.00;99.90
15357;DHT22;7778;48.792;9.260;2024-03-06T02:50:21;7.00;99.90
15357;DHT22;7778;48.792;9.260;2024-03-06T02:53:07;7.00;99.90
15357;DHT22;7778;48.792;9.260;2024-03-06T02:55:54;7.00;99.90
15357;DHT22;7778;48.792;9.260;2024-03-06T02:58:39;6.90;99.90
15357;DHT22;7778;48.792;9.260;2024-03-06T03:01:25;7.00;99.90
15357;DHT22;7778;48.792;9.260;2024-03-06T03:04:12;7.00;99.90
15357;DHT22;7778;48.792;9.260;2024-03-06T03:06:58;7.00;99.90
15357;DHT22;7778;48.792;9.260;2024-03-06T03:09:44;6.90;99.90
15357;DHT22;7778;48.792;9.260;2024-03-06T03:12:31;6.90;99.90
15357;DHT22;7778;48.792;9.260;2024-03-06T03:15:16;6.90;99.90
15357;DHT22;7778;48.792;9.260;2024-03-06T03:18:02;7.00;99.90
15357;DHT22;7778;48.792;9.260;2024-03-06T03:20:47;7.00;99.90
15357;DHT22;7778;48.792;9.260;2024-03-06T03:23:33;7.00;99.90
15357;DHT22;7778;48.792;9.260;2024-03-06T03:26:19;7.00;99.90
15357;DHT22;7778;48.792;9.260;2024-03-06T03:29:06;7.10;99.90
15357;DHT22;7778;48.792;9.260;2024-03-06T03:31:51;7.00;99.90
15357;DHT22;7778;48.792;9.260;2024-03-06T03:34:37;7.10;99.90
15357;DHT22;7778;48.792;9.260;2024-03-06T03:37:23;7.10;99.90
15357;DHT22;7778;48.792;9.260;2024-03-06T03:40:09;7.20;99.90
15357;DHT22;7778;48.792;9.260;2024-03-06T03:42:56;7.10;99.90
15357;DHT22;7778;48.792;9.260;2024-03-06T03:45:43;7.10;99.90
15357;DHT22;7778;48.792;9.260;2024-03-06T03:48:29;7.10;99.90
15357;DHT22;7778;48.792;9.260;2024-03-06T03:51:15;7.10;99.90
15357;DHT22;7778;48.792;9.260;2024-03-06T03:54:00;7.10;99.90
15357;DHT22;7778;48.792;9.260;2024-03-06T03:56:46;7.20;99.90
15357;DHT22;7778;48.792;9.260;2024-03-06T03:59:32;7.20;99.90
15357;DHT22;7778;48.792;9.260;2024-03-06T04:02:19;7.20;99.90
15357;DHT22;7778;48.792;9.260;2024-03-06T04:05:05;7.20;99.90
15357;DHT22;7778;48.792;9.260;2024-03-06T04:07:51;7.20;99.90
15357;DHT22;7778;48.792;9.260;2024-03-06T04:10:37;7.00;99.90
15357;DHT22;7778;48.792;9.260;2024-03-06T04:13:23;7.20;99.90
15357;DHT22;7778;48.792;9.260;2024-03-06T04:16:09;7.10;99.90
15357;DHT22;7778;48.792;9.260;2024-03-06T04:18:56;7.10;99.90
15357;DHT22;7778;48.792;9.260;2024-03-06T04:21:42;7.10;99.90
15357;DHT22;7778;48.792;9.260;2024-03-06T04:24:28;7.10;99.90
15357;DHT22;7778;48.792;9.260;2024-03-06T04:27:14;7.10;99.90
15357;DHT22;7778;48.792;9.260;2024-03-06T04:30:00;7.10;99.90
15357;DHT22;7778;48.792;9.260;2024-03-06T04:32:46;7.10;99.90
15357;DHT22;7778;48.792;9.260;2024-03-06T04:35:33;7.30;99.90
15357;DHT22;7778;48.792;9.260;2024-03-06T04:38:18;7.10;99.90
15357;DHT22;7778;48.792;9.260;2024-03-06T04:41:05;7.00;99.90
15357;DHT22;7778;48.792;9.260;2024-03-06T04:43:51;7.00;99.90
15357;DHT22;7778;48.792;9.260;2024-03-06T04:46:37;7.00;99.90
15357;DHT22;7778;48.792;9.260;2024-03-06T04:49:22;7.10;99.90
15357;DHT22;7778;48.792;9.260;2024-03-06T04:52:09;7.10;99.90
15357;DHT22;7778;48.792;9.260;2024-03-06T04:54:55;7.10;99.90
15357;DHT22;7778;48.792;9.260;2024-03-06T04:57:43;7.00;99.90
15357;DHT22;7778;48.792;9.260;2024-03-06T05:00:29;7.10;99.90
15357;DHT22;7778;48.792;9.260;2024-03-06T05:03:15;7.00;99.90
15357;DHT22;7778;48.792;9.260;2024-03-06T05:06:00;7.00;99.90
15357;DHT22;7778;48.792;9.260;2024-03-06T05:08:48;6.90;99.90
15357;DHT22;7778;48.792;9.260;2024-03-06T05:11:34;6.80;99.90
15357;DHT22;7778;48.792;9.260;2024-03-06T05:14:19;6.70;99.90
15357;DHT22;7778;48.792;9.260;2024-03-06T05:17:05;6.80;99.90
15357;DHT22;7778;48.792;9.260;2024-03-06T05:19:51;6.80;99.90
15357;DHT22;7778;48.792;9.260;2024-03-06T05:22:38;6.80;99.90
15357;DHT22;7778;48.792;9.260;2024-03-06T05:25:25;6.90;99.90
15357;DHT22;7778;48.792;9.260;2024-03-06T05:28:11;6.70;99.90
15357;DHT22;7778;48.792;9.260;2024-03-06T05:30:56;6.70;99.90
15357;DHT22;7778;48.792;9.260;2024-03-06T05:33:42;6.70;99.90
15357;DHT22;7778;48.792;9.260;2024-03-06T05:36:28;6.70;99.90
15357;DHT22;7778;48.792;9.260;2024-03-06T05:39:13;6.80;99.90
15357;DHT22;7778;48.792;9.260;2024-03-06T05:42:04;6.90;99.90
15357;DHT22;7778;48.792;9.260;2024-03-06T05:44:50;6.70;99.90
15357;DHT22;7778;48.792;9.260;2024-03-06T05:47:38;6.50;99.90
15357;DHT22;7778;48.792;9.260;2024-03-06T05:50:24;6.50;99.90
15357;DHT22;7778;48.792;9.260;2024-03-06T05:53:10;6.50;99.90
15357;DHT22;7778;48.792;9.260;2024-03-06T05:55:56;6.40;99.90
15357;DHT22;7778;48.792;9.260;2024-03-06T05:58:42;6.60;99.90
15357;DHT22;7778;48.792;9.260;2024-03-06T06:01:31;6.60;99.90
15357;DHT22;7778;48.792;9.260;2024-03-06T06:04:16;6.60;99.90
15357;DHT22;7778;48.792;9.260;2024-03-06T06:07:02;6.70;99.90
15357;DHT22;7778;48.792;9.260;2024-03-06T06:09:48;6.80;99.90
15357;DHT22;7778;48.792;9.260;2024-03-06T06:12:34;6.80;99.90
15357;DHT22;7778;48.792;9.260;2024-03-06T06:15:21;6.70;99.90
15357;DHT22;7778;48.792;9.260;2024-03-06T06:18:07;6.70;99.90
15357;DHT22;7778;48.792;9.260;2024-03-06T06:20:52;6.70;99.90
15357;DHT22;7778;48.792;9.260;2024-03-06T06:23:38;6.80;99.90
15357;DHT22;7778;48.792;9.260;2024-03-06T06:26:24;6.80;99.90
15357;DHT22;7778;48.792;9.260;2024-03-06T06:29:09;6.80;99.90
15357;DHT22;7778;48.792;9.260;2024-03-06T06:31:56;6.80;99.90
15357;DHT22;7778;48.792;9.260;2024-03-06T06:34:42;6.80;99.90
15357;DHT22;7778;48.792;9.260;2024-03-06T06:37:29;6.90;99.90
15357;DHT22;7778;48.792;9.260;2024-03-06T06:40:15;6.80;99.90
15357;DHT22;7778;48.792;9.260;2024-03-06T06:43:00;6.80;99.90
15357;DHT22;7778;48.792;9.260;2024-03-06T06:45:46;6.80;99.90
15357;DHT22;7778;48.792;9.260;2024-03-06T06:48:33;6.90;99.90
15357;DHT22;7778;48.792;9.260;2024-03-06T06:51:18;7.00;99.90
15357;DHT22;7778;48.792;9.260;2024-03-06T06:54:04;7.00;99.90
15357;DHT22;7778;48.792;9.260;2024-03-06T06:56:50;6.90;99.90
15357;DHT22;7778;48.792;9.260;2024-03-06T06:59:36;7.10;99.90
15357;DHT22;7778;48.792;9.260;2024-03-06T07:02:21;7.10;99.90
15357;DHT22;7778;48.792;9.260;2024-03-06T07:05:10;6.90;99.90
15357;DHT22;7778;48.792;9.260;2024-03-06T07:07:56;6.80;99.90
15357;DHT22;7778;48.792;9.260;2024-03-06T07:10:41;6.70;99.90
15357;DHT22;7778;48.792;9.260;2024-03-06T07:13:27;6.70;99.90
15357;DHT22;7778;48.792;9.260;2024-03-06T07:16:13;6.70;99.90
15357;DHT22;7778;48.792;9.260;2024-03-06T07:18:58;6.70;99.90
15357;DHT22;7778;48.792;9.260;2024-03-06T07:21:46;6.70;99.90
15357;DHT22;7778;48.792;9.260;2024-03-06T07:24:31;6.80;99.90
15357;DHT22;7778;48.792;9.260;2024-03-06T07:27:17;6.70;99.90
15357;DHT22;7778;48.792;9.260;2024-03-06T07:30:04;6.80;99.90
15357;DHT22;7778;48.792;9.260;2024-03-06T07:32:51;6.90;99.90
15357;DHT22;7778;48.792;9.260;2024-03-06T07:35:36;6.80;99.90
15357;DHT22;7778;48.792;9.260;2024-03-06T07:38:23;6.90;99.90
15357;DHT22;7778;48.792;9.260;2024-03-06T07:41:09;6.90;99.90
15357;DHT22;7778;48.792;9.260;2024-03-06T07:43:55;6.80;99.90
15357;DHT22;7778;48.792;9.260;2024-03-06T07:46:41;6.90;99.90
15357;DHT22;7778;48.792;9.260;2024-03-06T07:49:26;7.00;99.90
15357;DHT22;7778;48.792;9.260;2024-03-06T07:52:12;7.00;99.90
15357;DHT22;7778;48.792;9.260;2024-03-06T07:54:59;7.10;99.90
15357;DHT22;7778;48.792;9.260;2024-03-06T07:57:44;7.30;99.90
15357;DHT22;7778;48.792;9.260;2024-03-06T08:00:30;7.20;99.90
15357;DHT22;7778;48.792;9.260;2024-03-06T08:03:16;7.40;99.90
15357;DHT22;7778;48.792;9.260;2024-03-06T08:06:01;7.30;99.90
15357;DHT22;7778;48.792;9.260;2024-03-06T08:08:48;7.30;99.90
15357;DHT22;7778;48.792;9.260;2024-03-06T08:11:37;7.30;99.90
15357;DHT22;7778;48.792;9.260;2024-03-06T08:14:22;7.20;99.90
15357;DHT22;7778;48.792;9.260;2024-03-06T08:17:08;7.40;99.90
15357;DHT22;7778;48.792;9.260;2024-03-06T08:19:53;7.30;99.90
15357;DHT22;7778;48.792;9.260;2024-03-06T08:22:40;7.40;99.90
15357;DHT22;7778;48.792;9.260;2024-03-06T08:25:26;7.50;99.90
15357;DHT22;7778;48.792;9.260;2024-03-06T08:28:13;7.50;99.90
15357;DHT22;7778;48.792;9.260;2024-03-06T08:31:00;7.20;99.90
15357;DHT22;7778;48.792;9.260;2024-03-06T08:33:46;7.20;99.90
15357;DHT22;7778;48.792;9.260;2024-03-06T08:36:31;7.40;99.90
15357;DHT22;7778;48.792;9.260;2024-03-06T08:39:17;7.40;99.90
15357;DHT22;7778;48.792;9.260;2024-03-06T08:42:03;7.40;99.90
15357;DHT22;7778;48.792;9.260;2024-03-06T08:44:51;7.40;99.90
15357;DHT22;7778;48.792;9.260;2024-03-06T08:47:36;7.30;99.90
15357;DHT22;7778;48.792;9.260;2024-03-06T08:50:22;7.10;99.90
15357;DHT22;7778;48.792;9.260;2024-03-06T08:53:07;7.00;99.90
15357;DHT22;7778;48.792;9.260;2024-03-06T08:55:54;7.00;99.90
15357;DHT22;7778;48.792;9.260;2024-03-06T08:58:39;7.20;99.90
15357;DHT22;7778;48.792;9.260;2024-03-06T09:01:26;6.90;99.90
15357;DHT22;7778;48.792;9.260;2024-03-06T09:04:12;6.80;99.90
15357;DHT22;7778;48.792;9.260;2024-03-06T09:06:57;6.80;99.90
15357;DHT22;7778;48.792;9.260;2024-03-06T09:09:43;6.80;99.90
15357;DHT22;7778;48.792;9.260;2024-03-06T09:12:29;6.80;99.90
15357;DHT22;7778;48.792;9.260;2024-03-06T09:15:15;6.70;99.90
15357;DHT22;7778;48.792;9.260;2024-03-06T09:18:04;6.80;99.90
15357;DHT22;7778;48.792;9.260;2024-03-06T09:20:50;6.80;99.90
15357;DHT22;7778;48.792;9.260;2024-03-06T09:23:35;6.80;99.90
15357;DHT22;7778;48.792;9.260;2024-03-06T09:26:23;6.80;99.90
15357;DHT22;7778;48.792;9.260;2024-03-06T09:29:08;6.90;99.90
15357;DHT22;7778;48.792;9.260;2024-03-06T09:31:54;7.20;99.90
15357;DHT22;7778;48.792;9.260;2024-03-06T09:34:41;7.10;99.90
15357;DHT22;7778;48.792;9.260;2024-03-06T09:37:28;7.10;99.90
15357;DHT22;7778;48.792;9.260;2024-03-06T09:40:20;7.20;99.90
15357;DHT22;7778;48.792;9.260;2024-03-06T09:43:07;7.10;99.90
15357;DHT22;7778;48.792;9.260;2024-03-06T09:45:55;7.00;99.90
15357;DHT22;7778;48.792;9.260;2024-03-06T09:48:46;7.10;99.90
15357;DHT22;7778;48.792;9.260;2024-03-06T09:51:34;7.00;99.90
15357;DHT22;7778;48.792;9.260;2024-03-06T09:54:22;7.00;99.90
15357;DHT22;7778;48.792;9.260;2024-03-06T09:57:10;6.90;99.90
15357;DHT22;7778;48.792;9.260;2024-03-06T09:59:58;6.70;99.90
15357;DHT22;7778;48.792;9.260;2024-03-06T10:02:48;6.90;99.90
15357;DHT22;7778;48.792;9.260;2024-03-06T10:05:37;6.70;99.90
15357;DHT22;7778;48.792;9.260;2024-03-06T10:08:24;6.70;99.90
15357;DHT22;7778;48.792;9.260;2024-03-06T10:11:11;6.90;99.90
15357;DHT22;7778;48.792;9.260;2024-03-06T10:13:57;6.90;99.90
15357;DHT22;7778;48.792;9.260;2024-03-06T10:16:54;6.90;99.90
15357;DHT22;7778;48.792;9.260;2024-03-06T10:19:41;6.90;99.90
15357;DHT22;7778;48.792;9.260;2024-03-06T10:22:34;6.90;99.90
15357;DHT22;7778;48.792;9.260;2024-03-06T10:25:22;7.10;99.90
15357;DHT22;7778;48.792;9.260;2024-03-06T10:28:09;7.20;99.90
15357;DHT22;7778;48.792;9.260;2024-03-06T10:31:03;7.20;99.90
15357;DHT22;7778;48.792;9.260;2024-03-06T10:33:50;7.30;99.90
15357;DHT22;7778;48.792;9.260;2024-03-06T10:36:35;7.40;99.90
15357;DHT22;7778;48.792;9.260;2024-03-06T10:39:22;7.50;99.90
15357;DHT22;7778;48.792;9.260;2024-03-06T10:42:13;7.60;99.90
15357;DHT22;7778;48.792;9.260;2024-03-06T10:44:59;7.60;99.90
15357;DHT22;7778;48.792;9.260;2024-03-06T10:47:47;7.50;99.90
15357;DHT22;7778;48.792;9.260;2024-03-06T10:50:35;7.50;99.90
15357;DHT22;7778;48.792;9.260;2024-03-06T10:53:22;7.60;99.90
15357;DHT22;7778;48.792;9.260;2024-03-06T10:56:11;7.50;99.90
15357;DHT22;7778;48.792;9.260;2024-03-06T10:58:59;7.60;99.90
15357;DHT22;7778;48.792;9.260;2024-03-06T11:01:47;7.70;99.90
15357;DHT22;7778;48.792;9.260;2024-03-06T11:04:32;7.50;99.90
15357;DHT22;7778;48.792;9.260;2024-03-06T11:07:18;7.50;99.90
15357;DHT22;7778;48.792;9.260;2024-03-06T11:10:05;7.50;99.90
15357;DHT22;7778;48.792;9.260;2024-03-06T11:12:51;7.50;99.90
15357;DHT22;7778;48.792;9.260;2024-03-06T11:15:38;7.60;99.90
15357;DHT22;7778;48.792;9.260;2024-03-06T11:18:43;7.50;99.90
15357;DHT22;7778;48.792;9.260;2024-03-06T11:21:30;7.80;99.90
15357;DHT22;7778;48.792;9.260;2024-03-06T11:24:20;7.60;99.90
15357;DHT22;7778;48.792;9.260;2024-03-06T11:27:06;7.60;99.90
15357;DHT22;7778;48.792;9.260;2024-03-06T11:30:06;7.60;99.90
15357;DHT22;7778;48.792;9.260;2024-03-06T11:33:00;7.70;99.90
15357;DHT22;7778;48.792;9.260;2024-03-06T11:36:17;7.70;99.90
15357;DHT22;7778;48.792;9.260;2024-03-06T11:39:05;7.80;99.90
15357;DHT22;7778;48.792;9.260;2024-03-06T11:41:51;7.70;99.90
15357;DHT22;7778;48.792;9.260;2024-03-06T11:44:37;7.90;99.90
15357;DHT22;7778;48.792;9.260;2024-03-06T11:47:56;8.10;99.90
15357;DHT22;7778;48.792;9.260;2024-03-06T11:50:44;8.10;99.90
15357;DHT22;7778;48.792;9.260;2024-03-06T11:53:30;8.10;99.90
15357;DHT22;7778;48.792;9.260;2024-03-06T11:56:18;8.00;99.90
15357;DHT22;7778;48.792;9.260;2024-03-06T11:59:05;8.10;99.90
15357;DHT22;7778;48.792;9.260;2024-03-06T12:01:51;7.90;99.90
15357;DHT22;7778;48.792;9.260;2024-03-06T12:04:38;8.00;99.90
15357;DHT22;7778;48.792;9.260;2024-03-06T12:07:24;8.10;99.90
15357;DHT22;7778;48.792;9.260;2024-03-06T12:10:09;8.30;99.90
15357;DHT22;7778;48.792;9.260;2024-03-06T12:12:55;8.10;99.90
15357;DHT22;7778;48.792;9.260;2024-03-06T12:15:42;8.10;99.90
15357;DHT22;7778;48.792;9.260;2024-03-06T12:18:30;8.00;99.90
15357;DHT22;7778;48.792;9.260;2024-03-06T12:21:17;7.90;99.90
15357;DHT22;7778;48.792;9.260;2024-03-06T12:24:03;7.90;99.90
15357;DHT22;7778;48.792;9.260;2024-03-06T12:27:01;8.00;99.90
15357;DHT22;7778;48.792;9.260;2024-03-06T12:29:52;8.00;99.90
15357;DHT22;7778;48.792;9.260;2024-03-06T12:32:39;7.90;99.90
15357;DHT22;7778;48.792;9.260;2024-03-06T12:35:26;8.00;99.90
15357;DHT22;7778;48.792;9.260;2024-03-06T12:38:14;8.00;99.90
15357;DHT22;7778;48.792;9.260;2024-03-06T12:41:00;8.00;99.90
15357;DHT22;7778;48.792;9.260;2024-03-06T12:43:46;7.90;99.90
15357;DHT22;7778;48.792;9.260;2024-03-06T12:46:31;7.90;99.90
15357;DHT22;7778;48.792;9.260;2024-03-06T12:49:17;7.90;99.90
15357;DHT22;7778;48.792;9.260;2024-03-06T12:52:04;8.00;99.90
15357;DHT22;7778;48.792;9.260;2024-03-06T12:54:51;8.00;99.90
15357;DHT22;7778;48.792;9.260;2024-03-06T12:57:37;7.90;99.90
15357;DHT22;7778;48.792;9.260;2024-03-06T13:00:22;7.80;99.90
15357;DHT22;7778;48.792;9.260;2024-03-06T13:03:08;7.80;99.90
15357;DHT22;7778;48.792;9.260;2024-03-06T13:05:54;7.80;99.90
15357;DHT22;7778;48.792;9.260;2024-03-06T13:08:40;8.00;99.90
15357;DHT22;7778;48.792;9.260;2024-03-06T13:11:27;8.30;99.90
15357;DHT22;7778;48.792;9.260;2024-03-06T13:14:12;8.20;99.90
15357;DHT22;7778;48.792;9.260;2024-03-06T13:16:59;7.90;99.90
15357;DHT22;7778;48.792;9.260;2024-03-06T13:19:45;7.90;99.90
15357;DHT22;7778;48.792;9.260;2024-03-06T13:22:30;7.90;99.90
15357;DHT22;7778;48.792;9.260;2024-03-06T13:25:15;7.90;99.90
15357;DHT22;7778;48.792;9.260;2024-03-06T13:28:05;7.90;99.90
15357;DHT22;7778;48.792;9.260;2024-03-06T13:30:50;7.80;99.90
15357;DHT22;7778;48.792;9.260;2024-03-06T13:33:36;7.90;99.90
15357;DHT22;7778;48.792;9.260;2024-03-06T13:36:22;8.00;99.90
15357;DHT22;7778;48.792;9.260;2024-03-06T13:39:07;8.00;99.90
15357;DHT22;7778;48.792;9.260;2024-03-06T13:41:53;7.80;99.90
15357;DHT22;7778;48.792;9.260;2024-03-06T13:44:40;7.70;99.90
15357;DHT22;7778;48.792;9.260;2024-03-06T13:47:35;7.80;99.90
15357;DHT22;7778;48.792;9.260;2024-03-06T13:50:21;7.80;99.90
15357;DHT22;7778;48.792;9.260;2024-03-06T13:53:09;7.70;99.90
15357;DHT22;7778;48.792;9.260;2024-03-06T13:55:55;7.60;99.90
15357;DHT22;7778;48.792;9.260;2024-03-06T13:58:41;7.70;99.90
15357;DHT22;7778;48.792;9.260;2024-03-06T14:01:26;7.80;99.90
15357;DHT22;7778;48.792;9.260;2024-03-06T14:04:13;7.80;99.90
15357;DHT22;7778;48.792;9.260;2024-03-06T14:07:00;8.00;99.90
15357;DHT22;7778;48.792;9.260;2024-03-06T14:09:46;7.70;99.90
15357;DHT22;7778;48.792;9.260;2024-03-06T14:12:33;7.70;99.90
15357;DHT22;7778;48.792;9.260;2024-03-06T14:15:19;7.70;99.90
15357;DHT22;7778;48.792;9.260;2024-03-06T14:18:06;7.80;99.90
15357;DHT22;7778;48.792;9.260;2024-03-06T14:20:53;7.70;99.90
15357;DHT22;7778;48.792;9.260;2024-03-06T14:23:40;7.70;99.90
15357;DHT22;7778;48.792;9.260;2024-03-06T14:26:25;7.70;99.90
15357;DHT22;7778;48.792;9.260;2024-03-06T14:29:11;7.60;99.90
15357;DHT22;7778;48.792;9.260;2024-03-06T14:31:57;7.60;99.90
15357;DHT22;7778;48.792;9.260;2024-03-06T14:34:42;7.60;99.90
15357;DHT22;7778;48.792;9.260;2024-03-06T14:37:30;7.70;99.90
15357;DHT22;7778;48.792;9.260;2024-03-06T14:40:16;7.70;99.90
15357;DHT22;7778;48.792;9.260;2024-03-06T14:43:02;7.70;99.90
15357;DHT22;7778;48.792;9.260;2024-03-06T14:45:53;8.00;99.90
15357;DHT22;7778;48.792;9.260;2024-03-06T14:48:39;8.00;99.90
15357;DHT22;7778;48.792;9.260;2024-03-06T14:51:25;8.00;99.90
15357;DHT22;7778;48.792;9.260;2024-03-06T14:54:12;7.90;99.90
15357;DHT22;7778;48.792;9.260;2024-03-06T14:57:01;8.00;99.90
15357;DHT22;7778;48.792;9.260;2024-03-06T14:59:46;7.80;99.90
15357;DHT22;7778;48.792;9.260;2024-03-06T15:02:32;7.70;99.90
15357;DHT22;7778;48.792;9.260;2024-03-06T15:05:17;7.60;99.90
15357;DHT22;7778;48.792;9.260;2024-03-06T15:08:04;7.60;99.90
15357;DHT22;7778;48.792;9.260;2024-03-06T15:10:52;7.70;99.90
15357;DHT22;7778;48.792;9.260;2024-03-06T15:13:38;7.60;99.90
15357;DHT22;7778;48.792;9.260;2024-03-06T15:16:25;7.70;99.90
15357;DHT22;7778;48.792;9.260;2024-03-06T15:19:10;7.70;99.90
15357;DHT22;7778;48.792;9.260;2024-03-06T15:21:56;7.70;99.90
15357;DHT22;7778;48.792;9.260;2024-03-06T15:24:45;7.80;99.90
15357;DHT22;7778;48.792;9.260;2024-03-06T15:27:32;7.70;99.90
15357;DHT22;7778;48.792;9.260;2024-03-06T15:30:18;7.80;99.90
15357;DHT22;7778;48.792;9.260;2024-03-06T15:33:05;7.80;99.90
15357;DHT22;7778;48.792;9.260;2024-03-06T15:35:51;7.80;99.90
15357;DHT22;7778;48.792;9.260;2024-03-06T15:38:36;7.90;99.90
15357;DHT22;7778;48.792;9.260;2024-03-06T15:41:22;7.70;99.90
15357;DHT22;7778;48.792;9.260;2024-03-06T15:44:09;7.70;99.90
15357;DHT22;7778;48.792;9.260;2024-03-06T15:46:54;7.70;99.90
15357;DHT22;7778;48.792;9.260;2024-03-06T15:49:40;7.70;99.90
15357;DHT22;7778;48.792;9.260;2024-03-06T15:52:25;7.70;99.90
15357;DHT22;7778;48.792;9.260;2024-03-06T15:55:11;7.70;99.90
15357;DHT22;7778;48.792;9.260;2024-03-06T15:57:57;7.70;99.90
15357;DHT22;7778;48.792;9.260;2024-03-06T16:00:44;7.60;99.90
15357;DHT22;7778;48.792;9.260;2024-03-06T16:03:30;7.70;99.90
15357;DHT22;7778;48.792;9.260;2024-03-06T16:06:16;7.70;99.90
15357;DHT22;7778;48.792;9.260;2024-03-06T16:09:02;7.80;99.90
15357;DHT22;7778;48.792;9.260;2024-03-06T16:11:48;7.90;99.90
15357;DHT22;7778;48.792;9.260;2024-03-06T16:14:34;7.70;99.90
15357;DHT22;7778;48.792;9.260;2024-03-06T16:17:21;7.80;99.90
15357;DHT22;7778;48.792;9.260;2024-03-06T16:20:07;7.80;99.90
15357;DHT22;7778;48.792;9.260;2024-03-06T16:22:55;7.80;99.90
15357;DHT22;7778;48.792;9.260;2024-03-06T16:25:41;7.80;99.90
15357;DHT22;7778;48.792;9.260;2024-03-06T16:28:26;7.80;99.90
15357;DHT22;7778;48.792;9.260;2024-03-06T16:31:12;7.80;99.90
15357;DHT22;7778;48.792;9.260;2024-03-06T16:34:00;7.90;99.90
15357;DHT22;7778;48.792;9.260;2024-03-06T16:36:46;7.90;99.90
15357;DHT22;7778;48.792;9.260;2024-03-06T16:39:31;7.90;99.90
15357;DHT22;7778;48.792;9.260;2024-03-06T16:42:17;8.10;99.90
15357;DHT22;7778;48.792;9.260;2024-03-06T16:45:04;8.00;99.90
15357;DHT22;7778;48.792;9.260;2024-03-06T16:47:51;8.00;99.90
15357;DHT22;7778;48.792;9.260;2024-03-06T16:50:38;8.10;99.90
15357;DHT22;7778;48.792;9.260;2024-03-06T16:53:24;8.00;99.90
15357;DHT22;7778;48.792;9.260;2024-03-06T16:56:11;8.10;99.90
15357;DHT22;7778;48.792;9.260;2024-03-06T16:58:57;8.00;99.90
15357;DHT22;7778;48.792;9.260;2024-03-06T17:01:42;7.90;99.90
15357;DHT22;7778;48.792;9.260;2024-03-06T17:04:28;8.10;99.90
15357;DHT22;7778;48.792;9.260;2024-03-06T17:07:15;8.30;99.90
15357;DHT22;7778;48.792;9.260;2024-03-06T17:10:01;8.10;99.90
15357;DHT22;7778;48.792;9.260;2024-03-06T17:12:46;8.20;99.90
15357;DHT22;7778;48.792;9.260;2024-03-06T17:15:32;8.10;99.90
15357;DHT22;7778;48.792;9.260;2024-03-06T17:18:17;8.10;99.90
15357;DHT22;7778;48.792;9.260;2024-03-06T17:21:04;8.00;99.90
15357;DHT22;7778;48.792;9.260;2024-03-06T17:23:54;7.90;99.90
15357;DHT22;7778;48.792;9.260;2024-03-06T17:26:39;7.90;99.90
15357;DHT22;7778;48.792;9.260;2024-03-06T17:29:26;7.90;99.90
15357;DHT22;7778;48.792;9.260;2024-03-06T17:32:12;7.80;99.90
15357;DHT22;7778;48.792;9.260;2024-03-06T17:34:58;7.70;99.90
15357;DHT22;7778;48.792;9.260;2024-03-06T17:37:45;7.80;99.90
15357;DHT22;7778;48.792;9.260;2024-03-06T17:40:31;7.60;99.90
15357;DHT22;7778;48.792;9.260;2024-03-06T17:43:17;7.60;99.90
15357;DHT22;7778;48.792;9.260;2024-03-06T17:46:04;7.50;99.90
15357;DHT22;7778;48.792;9.260;2024-03-06T17:48:49;7.50;99.90
15357;DHT22;7778;48.792;9.260;2024-03-06T17:51:35;7.60;99.90
15357;DHT22;7778;48.792;9.260;2024-03-06T17:54:20;7.60;99.90
15357;DHT22;7778;48.792;9.260;2024-03-06T17:57:08;7.50;99.90
15357;DHT22;7778;48.792;9.260;2024-03-06T17:59:54;7.60;99.90
15357;DHT22;7778;48.792;9.260;2024-03-06T18:02:40;7.60;99.90
15357;DHT22;7778;48.792;9.260;2024-03-06T18:05:25;7.50;99.90
15357;DHT22;7778;48.792;9.260;2024-03-06T18:08:11;7.50;99.90